Terminal Aerodrome Forecast
Issued by NWS

Home | Current Version | Previous Version | Text Only | Print | Product List | Glossary Off
Versions: 1 2 3 4 5 6 7 8 9 10 11 12 13 14 15

924
FTUS43 KICT 241720
TAFRSL
TAF
KRSL 241720Z 2418/2518 20026G33KT P6SM BKN250
     FM242200 19018KT P6SM BKN250
     FM250200 14012KT P6SM BKN200
     FM251200 12011KT P6SM BKN025
     FM251400 03011KT P6SM BKN020=

USA.gov is the U.S. government's official web portal to all federal, state and local government web resources and services.